Kailua, Hawaii
Current Conditions -  °F | °C
As of 12:24 PM on Saturday 25 Oct 2014 (Local Time) from PHNG Reporting Station
Scattered Clouds Scattered Clouds  
Wind Chill: 85°   Ceiling: Unl
Heat Index: 92°   Visibility: 10mi
Dew Point: 73°   Wind: 10mph
Humidity: 67%   Direction: 100°E
Pressure: 30.01"   Gusts: NA
Location:  21.4°N, 157.74°W
Report Text: PHNG 252224Z 10009KT 10SM SCT024 29/23 A3001 RMK AO2 T02940228 $
Loading
Personal Weather Stations






























Interactive Weather Map
Tropical Storm Tracking
New forecast layout! Learn more

10-Day Weather Forecast

Advertisements
Track Severe Weather on mobile